Seagrace — 9HA3307 — position and weather

sailwx.info

Track history (hours):
 
Tides and Currents Weather Stations Pressure Air Temp Water Temp Dewpoint Dewpoint Depression Visibility Wind Speed Wind Dir Waves Ship Positions

Seagrace

Last reported at 2017-Sep-20 08:32 UTC. Time now 2017-Oct-22 08:24 UTC.
Position N 35°58' W 005°35'.
Warning: this ship's position is 31 days out of date.

Length 244 m; draft 13.8 m.

Type: Ship (hazmat cat A). MMSI: 229406000.

Date/timePositionNaut miles runAvg speedWind from/ knotsBaromVisibWave heightAir tempDewpointWater temp
2017-Sep-20 08:32N 35°58' W 005°35'010.4
2017-Sep-20 08:29N 35°58' W 005°34'510.3
2017-Sep-20 07:58N 35°59' W 005°28'5 9.9
2017-Sep-20 07:30N 36°01' W 005°23'510.4
2017-Sep-20 07:00N 36°01' W 005°16'  
2017-Sep-17 06:27N 37°29' E 012°19'1211.6
2017-Sep-17 05:24N 37°21' E 012°31'511.8
2017-Sep-17 05:00N 37°19' E 012°37'612.1
2017-Sep-17 04:31N 37°16' E 012°43'612.2
2017-Sep-17 03:59N 37°13' E 012°50'1312.3
2017-Sep-17 02:55N 37°07' E 013°05'512.3
2017-Sep-17 02:30N 37°04' E 013°10'712.2
2017-Sep-17 01:57N 37°01' E 013°18'612.0
2017-Sep-17 01:28N 36°58' E 013°24'611.9
2017-Sep-17 01:00N 36°55' E 013°30'611.8
2017-Sep-17 00:29N 36°53' E 013°37'611.7
2017-Sep-17 00:00N 36°50' E 013°43'611.6
2017-Sep-16 23:30N 36°47' E 013°49'611.5
2017-Sep-16 23:00N 36°44' E 013°56'611.2
2017-Sep-16 22:30N 36°42' E 014°02'611.4
2017-Sep-16 22:00N 36°39' E 014°08'611.7
2017-Sep-16 21:30N 36°36' E 014°14'612.0
2017-Sep-16 21:00N 36°33' E 014°21'612.3
2017-Sep-16 20:30N 36°30' E 014°28'612.2
2017-Sep-16 20:01N 36°27' E 014°34'611.7
2017-Sep-16 19:30N 36°26' E 014°41'611.7
2017-Sep-16 19:00N 36°26' E 014°49'611.7
2017-Sep-16 18:30N 36°26' E 014°56'611.5
2017-Sep-16 18:00N 36°26' E 015°03'611.6
2017-Sep-16 17:30N 36°25' E 015°10'612.2
2017-Sep-16 17:00N 36°25' E 015°18'712.7
2017-Sep-16 16:29N 36°25' E 015°26'612.9
2017-Sep-16 16:00N 36°25' E 015°34'613.0
2017-Sep-16 15:30N 36°25' E 015°42'812.8
2017-Sep-16 14:52N 36°25' E 015°52'512.6
2017-Sep-16 14:29N 36°25' E 015°58'612.4
2017-Sep-16 14:00N 36°25' E 016°05'612.2
2017-Sep-16 13:29N 36°25' E 016°13'612.2
2017-Sep-16 13:00N 36°24' E 016°20'612.2
2017-Sep-16 12:30N 36°24' E 016°28'12312.5
2017-Sep-16 02:41N 36°23' E 019°01'212.6
2017-Sep-16 02:30N 36°23' E 019°04'712.6
2017-Sep-16 01:59N 36°23' E 019°12'19312.1
2017-Sep-15 10:04N 36°24' E 023°11'  
2017-Sep-12 17:10N 40°52' E 028°27'210.8
2017-Sep-12 17:00N 40°52' E 028°29'510.8
2017-Sep-12 16:30N 40°53' E 028°36'811.2
2017-Sep-12 15:46N 40°54' E 028°47'310.5
2017-Sep-12 15:27N 40°55' E 028°51'4 6.6
2017-Sep-12 14:54N 40°56' E 028°55'1 2.4
2017-Sep-12 14:30N 40°57' E 028°56'2 3.3
2017-Sep-12 13:58N 40°58' E 028°58'64 9.3
2017-Sep-12 07:02N 41°44' E 029°58'111.7
2017-Sep-12 06:59N 41°44' E 029°59'611.6
2017-Sep-12 06:30N 41°48' E 030°05'611.7
2017-Sep-12 06:00N 41°51' E 030°12'611.7
2017-Sep-12 05:30N 41°54' E 030°18'611.9
2017-Sep-12 04:59N 41°57' E 030°26'612.1
2017-Sep-12 04:30N 42°00' E 030°32'712.3
2017-Sep-12 03:56N 42°04' E 030°40'512.3
2017-Sep-12 03:30N 42°07' E 030°46'612.5
2017-Sep-12 03:00N 42°10' E 030°53'612.5
2017-Sep-12 02:30N 42°13' E 031°00'612.4
2017-Sep-12 02:00N 42°17' E 031°07'612.3
2017-Sep-12 01:30N 42°20' E 031°14'612.3
2017-Sep-12 01:00N 42°23' E 031°21'612.3
2017-Sep-12 00:30N 42°26' E 031°29'612.3
2017-Sep-12 00:00N 42°30' E 031°36'612.3
2017-Sep-11 23:30N 42°33' E 031°43'612.2
2017-Sep-11 23:00N 42°36' E 031°50'612.2
2017-Sep-11 22:30N 42°39' E 031°57'612.1
2017-Sep-11 22:00N 42°43' E 032°04'612.1
2017-Sep-11 21:30N 42°46' E 032°11'612.1
2017-Sep-11 21:00N 42°49' E 032°18'612.3
2017-Sep-11 20:30N 42°53' E 032°25'612.4
2017-Sep-11 20:00N 42°56' E 032°32'612.4
2017-Sep-11 19:30N 42°59' E 032°39'612.5
2017-Sep-11 19:00N 43°03' E 032°46'712.6
2017-Sep-11 18:27N 43°06' E 032°54'612.6
2017-Sep-11 17:58N 43°09' E 033°01'812.3
2017-Sep-11 17:19N 43°14' E 033°11'412.3
2017-Sep-11 17:00N 43°16' E 033°15'712.5
2017-Sep-11 16:29N 43°19' E 033°23'612.5
2017-Sep-11 16:00N 43°22' E 033°30'612.4
2017-Sep-11 15:29N 43°26' E 033°37'1312.2
2017-Sep-11 14:24N 43°33' E 033°53'512.4
2017-Sep-11 14:00N 43°36' E 033°59'1112.4
2017-Sep-11 13:05N 43°41' E 034°12'112.5
2017-Sep-11 13:00N 43°42' E 034°13'1012.5
2017-Sep-11 12:11N 43°48' E 034°25'312.6
2017-Sep-11 11:59N 43°49' E 034°28'2012.7
2017-Sep-11 10:26N 43°59' E 034°51'612.6
2017-Sep-11 09:58N 44°02' E 034°58'612.6
2017-Sep-11 09:30N 44°06' E 035°05'1712.6
2017-Sep-11 08:07N 44°15' E 035°25'112.8
2017-Sep-11 08:00N 44°16' E 035°27'812.9
2017-Sep-11 07:22N 44°20' E 035°37'2113.4
2017-Sep-11 05:47N 44°31' E 036°02'2312.7
2017-Sep-11 04:01N 44°44' E 036°28'013.0
2017-Sep-11 04:00N 44°44' E 036°28'612.4
2017-Sep-11 03:30N 44°50' E 036°28'612.2
2017-Sep-11 03:00N 44°56' E 036°29'  
Track history (hours):
 
Tides and Currents Weather Stations Pressure Air Temp Water Temp Dewpoint Dewpoint Depression Visibility Wind Speed Wind Dir Waves Ship Positions

Seagrace

Last reported at 2017-Sep-20 08:32 UTC. Time now 2017-Oct-22 08:24 UTC.
Position N 35°58' W 005°35'.
Warning: this ship's position is 31 days out of date.

Length 244 m; draft 13.8 m.

Type: Ship (hazmat cat A). MMSI: 229406000.

Date/timePositionNaut miles runAvg speedWind from/ knotsBaromVisibWave heightAir tempDewpointWater temp
2017-Sep-20 08:32N 35°58' W 005°35'010.4
2017-Sep-20 08:29N 35°58' W 005°34'510.3
2017-Sep-20 07:58N 35°59' W 005°28'5 9.9
2017-Sep-20 07:30N 36°01' W 005°23'510.4
2017-Sep-20 07:00N 36°01' W 005°16'  
2017-Sep-17 06:27N 37°29' E 012°19'1211.6
2017-Sep-17 05:24N 37°21' E 012°31'511.8
2017-Sep-17 05:00N 37°19' E 012°37'612.1
2017-Sep-17 04:31N 37°16' E 012°43'612.2
2017-Sep-17 03:59N 37°13' E 012°50'1312.3
2017-Sep-17 02:55N 37°07' E 013°05'512.3
2017-Sep-17 02:30N 37°04' E 013°10'712.2
2017-Sep-17 01:57N 37°01' E 013°18'612.0
2017-Sep-17 01:28N 36°58' E 013°24'611.9
2017-Sep-17 01:00N 36°55' E 013°30'611.8
2017-Sep-17 00:29N 36°53' E 013°37'611.7
2017-Sep-17 00:00N 36°50' E 013°43'611.6
2017-Sep-16 23:30N 36°47' E 013°49'611.5
2017-Sep-16 23:00N 36°44' E 013°56'611.2
2017-Sep-16 22:30N 36°42' E 014°02'611.4
2017-Sep-16 22:00N 36°39' E 014°08'611.7
2017-Sep-16 21:30N 36°36' E 014°14'612.0
2017-Sep-16 21:00N 36°33' E 014°21'612.3
2017-Sep-16 20:30N 36°30' E 014°28'612.2
2017-Sep-16 20:01N 36°27' E 014°34'611.7
2017-Sep-16 19:30N 36°26' E 014°41'611.7
2017-Sep-16 19:00N 36°26' E 014°49'611.7
2017-Sep-16 18:30N 36°26' E 014°56'611.5
2017-Sep-16 18:00N 36°26' E 015°03'611.6
2017-Sep-16 17:30N 36°25' E 015°10'612.2
2017-Sep-16 17:00N 36°25' E 015°18'712.7
2017-Sep-16 16:29N 36°25' E 015°26'612.9
2017-Sep-16 16:00N 36°25' E 015°34'613.0
2017-Sep-16 15:30N 36°25' E 015°42'812.8
2017-Sep-16 14:52N 36°25' E 015°52'512.6
2017-Sep-16 14:29N 36°25' E 015°58'612.4
2017-Sep-16 14:00N 36°25' E 016°05'612.2
2017-Sep-16 13:29N 36°25' E 016°13'612.2
2017-Sep-16 13:00N 36°24' E 016°20'612.2
2017-Sep-16 12:30N 36°24' E 016°28'12312.5
2017-Sep-16 02:41N 36°23' E 019°01'212.6
2017-Sep-16 02:30N 36°23' E 019°04'712.6
2017-Sep-16 01:59N 36°23' E 019°12'19312.1
2017-Sep-15 10:04N 36°24' E 023°11'  
2017-Sep-12 17:10N 40°52' E 028°27'210.8
2017-Sep-12 17:00N 40°52' E 028°29'510.8
2017-Sep-12 16:30N 40°53' E 028°36'811.2
2017-Sep-12 15:46N 40°54' E 028°47'310.5
2017-Sep-12 15:27N 40°55' E 028°51'4 6.6
2017-Sep-12 14:54N 40°56' E 028°55'1 2.4
2017-Sep-12 14:30N 40°57' E 028°56'2 3.3
2017-Sep-12 13:58N 40°58' E 028°58'64 9.3
2017-Sep-12 07:02N 41°44' E 029°58'111.7
2017-Sep-12 06:59N 41°44' E 029°59'611.6
2017-Sep-12 06:30N 41°48' E 030°05'611.7
2017-Sep-12 06:00N 41°51' E 030°12'611.7
2017-Sep-12 05:30N 41°54' E 030°18'611.9
2017-Sep-12 04:59N 41°57' E 030°26'612.1
2017-Sep-12 04:30N 42°00' E 030°32'712.3
2017-Sep-12 03:56N 42°04' E 030°40'512.3
2017-Sep-12 03:30N 42°07' E 030°46'612.5
2017-Sep-12 03:00N 42°10' E 030°53'612.5
2017-Sep-12 02:30N 42°13' E 031°00'612.4
2017-Sep-12 02:00N 42°17' E 031°07'612.3
2017-Sep-12 01:30N 42°20' E 031°14'612.3
2017-Sep-12 01:00N 42°23' E 031°21'612.3
2017-Sep-12 00:30N 42°26' E 031°29'612.3
2017-Sep-12 00:00N 42°30' E 031°36'612.3
2017-Sep-11 23:30N 42°33' E 031°43'612.2
2017-Sep-11 23:00N 42°36' E 031°50'612.2
2017-Sep-11 22:30N 42°39' E 031°57'612.1
2017-Sep-11 22:00N 42°43' E 032°04'612.1
2017-Sep-11 21:30N 42°46' E 032°11'612.1
2017-Sep-11 21:00N 42°49' E 032°18'612.3
2017-Sep-11 20:30N 42°53' E 032°25'612.4
2017-Sep-11 20:00N 42°56' E 032°32'612.4
2017-Sep-11 19:30N 42°59' E 032°39'612.5
2017-Sep-11 19:00N 43°03' E 032°46'712.6
2017-Sep-11 18:27N 43°06' E 032°54'612.6
2017-Sep-11 17:58N 43°09' E 033°01'812.3
2017-Sep-11 17:19N 43°14' E 033°11'412.3
2017-Sep-11 17:00N 43°16' E 033°15'712.5
2017-Sep-11 16:29N 43°19' E 033°23'612.5
2017-Sep-11 16:00N 43°22' E 033°30'612.4
2017-Sep-11 15:29N 43°26' E 033°37'1312.2
2017-Sep-11 14:24N 43°33' E 033°53'512.4
2017-Sep-11 14:00N 43°36' E 033°59'1112.4
2017-Sep-11 13:05N 43°41' E 034°12'112.5
2017-Sep-11 13:00N 43°42' E 034°13'1012.5
2017-Sep-11 12:11N 43°48' E 034°25'312.6
2017-Sep-11 11:59N 43°49' E 034°28'2012.7
2017-Sep-11 10:26N 43°59' E 034°51'612.6
2017-Sep-11 09:58N 44°02' E 034°58'612.6
2017-Sep-11 09:30N 44°06' E 035°05'1712.6
2017-Sep-11 08:07N 44°15' E 035°25'112.8
2017-Sep-11 08:00N 44°16' E 035°27'812.9
2017-Sep-11 07:22N 44°20' E 035°37'2113.4
2017-Sep-11 05:47N 44°31' E 036°02'2312.7
2017-Sep-11 04:01N 44°44' E 036°28'013.0
2017-Sep-11 04:00N 44°44' E 036°28'612.4
2017-Sep-11 03:30N 44°50' E 036°28'612.2
2017-Sep-11 03:00N 44°56' E 036°29'  

Dump ship's entire track history